KRAC/RAC METAR and TAF weather

Enter ICAO airport designator
Station Type Date Time Source
KRAC METAR 2022/01/25 04:53 UTC NOAA

KRAC 250453Z AUTO 29007KT 10SM CLR M12/M17 A3000 RMK AO2 SLP173 T11221172


Station Type Date Time Source
KRAC Decoded METAR 2022/01/25 04:53 UTC NOAA

BATTEN INTERNATIONAL AIRPORT, WI, United States (KRAC) 42-46N 87-49W 203M
Jan 24, 2022 - 11:53 PM EST / 2022.01.25 0453 UTC
Wind: from the WNW (290 degrees) at 8 MPH (7 KT):0
Visibility: 10 mile(s):0
Sky conditions: clear
Temperature: 10.0 F (-12.2 C)
Windchill: -2 F (-19 C):1
Dew Point: 1.0 F (-17.2 C)
Relative Humidity: 66%
Pressure (altimeter): 30 in. Hg (1015 hPa)
ob: KRAC 250453Z AUTO 29007KT 10SM CLR M12/M17 A3000 RMK AO2 SLP173 T11221172
cycle: 5

Station Type Date Time Source
KRAC TAF UTC NOAA

Error!

Example: see airport list